Time;durP1;ratioP1;P1;durP2;ratioP2;P2;SDS_P1;SDS_P2;PMS_P1;PMS_P2;Temp;Humidity;BMP_temperature;BMP_pressure;BME280_temperature;BME280_humidity;BME280_pressure;Samples;Min_cycle;Max_cycle;Signal;HPM_P1;HPM_P2
2023/10/05 00:02:55;;;;;;;18.33;8.47;;;;;;;17.60;60.62;100199.25;5071183;28;20245;-72
2023/10/05 00:05:26;;;;;;;15.13;9.37;;;;;;;17.58;60.86;100196.78;5071236;28;20591;-72
2023/10/05 00:07:53;;;;;;;11.80;7.90;;;;;;;17.60;60.43;100200.03;5073241;28;20184;-72
2023/10/05 00:10:20;;;;;;;11.97;7.83;;;;;;;17.54;60.58;100195.59;5075172;28;20655;-71
2023/10/05 00:12:48;;;;;;;12.97;7.93;;;;;;;17.56;60.51;100195.38;5074913;28;20214;-72
2023/10/05 00:15:15;;;;;;;16.57;8.53;;;;;;;17.58;60.61;100201.31;5074962;28;20284;-72
2023/10/05 00:17:42;;;;;;;20.50;8.00;;;;;;;17.59;60.62;100202.94;5075368;28;20648;-71
2023/10/05 00:20:11;;;;;;;9.43;8.40;;;;;;;17.57;61.08;100205.06;5074786;28;20189;-72
2023/10/05 00:22:40;;;;;;;18.70;8.47;;;;;;;17.57;61.52;100203.19;5074956;28;20222;-70
2023/10/05 00:25:09;;;;;;;13.23;9.03;;;;;;;17.56;61.55;100192.69;5075025;28;20192;-70
2023/10/05 00:27:37;;;;;;;14.03;8.40;;;;;;;17.54;61.37;100200.13;5074849;28;20219;-70
2023/10/05 00:30:06;;;;;;;11.57;8.20;;;;;;;17.48;61.67;100204.50;5074209;28;20677;-71
2023/10/05 00:32:35;;;;;;;14.53;7.93;;;;;;;17.44;61.25;100211.38;5074460;28;20234;-71
2023/10/05 00:35:15;;;;;;;16.10;9.73;;;;;;;17.36;61.84;100210.84;5074842;28;20203;-71
2023/10/05 00:37:44;;;;;;;16.07;8.97;;;;;;;17.34;62.35;100211.06;5074301;28;20192;-71
2023/10/05 00:40:17;;;;;;;11.30;7.97;;;;;;;17.32;62.26;100210.44;5074482;28;20523;-71
2023/10/05 00:42:44;;;;;;;14.80;8.27;;;;;;;17.35;62.31;100211.88;5074880;28;20189;-71
2023/10/05 00:45:12;;;;;;;19.50;8.70;;;;;;;17.28;62.44;100211.13;5074711;28;20233;-71
2023/10/05 00:47:42;;;;;;;18.77;8.50;;;;;;;17.29;62.58;100210.06;5074090;28;20591;-71
2023/10/05 00:50:11;;;;;;;16.50;8.47;;;;;;;17.31;62.41;100213.38;5074735;28;20617;-72
2023/10/05 00:52:38;;;;;;;12.70;8.83;;;;;;;17.31;62.00;100206.13;5074581;28;20195;-73
2023/10/05 00:55:12;;;;;;;13.87;8.77;;;;;;;17.32;61.96;100215.00;5074180;28;20203;-74
2023/10/05 00:57:40;;;;;;;13.77;8.63;;;;;;;17.30;62.21;100214.38;5074405;28;20659;-72
2023/10/05 01:00:26;;;;;;;16.23;9.00;;;;;;;17.22;62.36;100201.25;5074137;28;20196;-70
2023/10/05 01:03:16;;;;;;;12.27;8.07;;;;;;;17.24;62.32;100210.75;5074581;28;20184;-70
2023/10/05 01:05:51;;;;;;;13.17;8.70;;;;;;;17.18;62.60;100205.41;5074508;28;20187;-70
2023/10/05 01:08:23;;;;;;;12.50;8.47;;;;;;;17.16;63.21;100202.16;5074441;28;20217;-71
2023/10/05 01:10:54;;;;;;;13.27;7.93;;;;;;;17.16;63.44;100218.25;5073665;28;20646;-71
2023/10/05 01:13:28;;;;;;;11.47;8.13;;;;;;;17.09;63.49;100212.13;5073471;28;20734;-71
2023/10/05 01:15:55;;;;;;;11.63;7.77;;;;;;;17.11;63.78;100212.72;5054538;28;20195;-71
2023/10/05 01:18:25;;;;;;;11.13;8.20;;;;;;;17.05;63.73;100210.91;5054002;28;20598;-72
2023/10/05 01:20:53;;;;;;;12.87;8.07;;;;;;;17.03;63.77;100213.00;5072711;28;20191;-73
2023/10/05 01:23:30;;;;;;;16.13;8.73;;;;;;;17.02;63.80;100217.53;5074153;28;20196;-72
2023/10/05 01:26:00;;;;;;;15.63;8.43;;;;;;;16.91;64.11;100214.75;5073287;28;20657;-73
2023/10/05 01:28:26;;;;;;;13.23;7.80;;;;;;;16.84;63.97;100212.13;5073662;28;20572;-72
2023/10/05 01:30:55;;;;;;;13.17;8.70;;;;;;;16.83;63.95;100215.03;5072822;28;20625;-72
2023/10/05 01:33:23;;;;;;;13.70;8.67;;;;;;;16.81;64.46;100209.03;5073682;28;20196;-73
2023/10/05 01:35:52;;;;;;;12.93;8.37;;;;;;;16.82;64.48;100206.16;5073806;28;20208;-73
2023/10/05 01:38:18;;;;;;;9.47;8.37;;;;;;;16.84;64.09;100205.94;5073146;28;20188;-72
2023/10/05 01:40:51;;;;;;;12.73;7.70;;;;;;;16.81;63.96;100209.03;5073761;28;20245;-72
2023/10/05 01:43:18;;;;;;;16.17;9.00;;;;;;;16.65;64.21;100206.94;5073550;28;20188;-71
2023/10/05 01:45:45;;;;;;;17.00;8.97;;;;;;;16.56;64.56;100213.56;5073081;28;20214;-72
2023/10/05 01:48:18;;;;;;;12.87;8.27;;;;;;;16.50;64.67;100211.78;5073117;28;20192;-71
2023/10/05 01:50:45;;;;;;;15.67;8.93;;;;;;;16.45;64.87;100215.09;5073031;28;20192;-72
2023/10/05 01:53:15;;;;;;;22.60;8.37;;;;;;;16.49;65.36;100220.88;5073185;28;20231;-72
2023/10/05 01:55:44;;;;;;;15.20;8.70;;;;;;;16.51;65.32;100216.94;5073003;28;20200;-73
2023/10/05 01:58:23;;;;;;;13.73;8.60;;;;;;;16.51;65.82;100221.47;5073292;28;20257;-72
2023/10/05 02:00:50;;;;;;;10.83;8.63;;;;;;;16.46;66.13;100221.28;5072416;28;20652;-72
2023/10/05 02:03:19;;;;;;;13.10;8.40;;;;;;;16.44;66.17;100217.97;5072675;28;20248;-73
2023/10/05 02:05:47;;;;;;;17.63;8.67;;;;;;;16.46;65.94;100221.28;5072786;28;20213;-72
2023/10/05 02:08:14;;;;;;;16.13;9.17;;;;;;;16.47;65.97;100225.59;5073160;28;20609;-72
2023/10/05 02:10:46;;;;;;;18.50;9.33;;;;;;;16.47;65.77;100221.06;5073083;28;20210;-73
2023/10/05 02:13:14;;;;;;;18.37;9.73;;;;;;;16.47;65.67;100229.13;5072083;28;20727;-73
2023/10/05 02:15:41;;;;;;;13.73;8.90;;;;;;;16.47;66.05;100233.66;5072490;28;20191;-73
2023/10/05 02:18:18;;;;;;;10.63;8.13;;;;;;;16.44;66.51;100228.72;5072608;28;20694;-73
2023/10/05 02:20:50;;;;;;;13.73;7.97;;;;;;;16.43;66.05;100227.06;5073072;28;20266;-72
2023/10/05 02:26:00;;;;;;;12.13;8.37;;;;;;;16.49;65.81;100236.97;5051709;28;20284;-72
2023/10/05 02:28:28;;;;;;;15.37;8.97;;;;;;;16.49;65.89;100242.31;5052837;28;20189;-72
2023/10/05 02:31:00;;;;;;;16.27;8.63;;;;;;;16.49;65.84;100245.81;5052632;28;20193;-72
2023/10/05 02:33:31;;;;;;;12.20;8.63;;;;;;;16.45;66.74;100244.59;5052466;28;20197;-72
2023/10/05 02:36:09;;;;;;;12.10;8.00;;;;;;;16.37;67.24;100239.44;5055025;28;20891;-72
2023/10/05 02:38:37;;;;;;;17.47;9.17;;;;;;;16.28;67.60;100234.53;5072926;28;20183;-72
2023/10/05 02:41:05;;;;;;;14.90;8.73;;;;;;;16.32;67.22;100243.81;5071693;28;20192;-72
2023/10/05 02:43:39;;;;;;;17.03;8.63;;;;;;;16.31;66.66;100245.69;5071808;28;20566;-70
2023/10/05 02:46:10;;;;;;;16.00;8.53;;;;;;;16.31;66.46;100251.03;5071999;28;20185;-70
2023/10/05 02:48:38;;;;;;;17.20;8.17;;;;;;;16.30;66.71;100253.94;5072197;28;20276;-71
2023/10/05 02:51:05;;;;;;;12.87;8.50;;;;;;;16.27;66.84;100249.00;5071968;28;20215;-71
2023/10/05 02:53:40;;;;;;;12.70;9.00;;;;;;;16.24;66.80;100244.88;5071805;28;20199;-70
2023/10/05 02:56:20;;;;;;;17.00;8.77;;;;;;;16.23;66.82;100247.78;5071180;28;20561;-72
2023/10/05 02:58:51;;;;;;;15.37;9.07;;;;;;;16.13;67.35;100248.22;5071741;28;20677;-72
2023/10/05 03:01:18;;;;;;;14.40;8.43;;;;;;;16.01;68.16;100241.91;5071726;28;20238;-71
2023/10/05 03:03:44;;;;;;;15.43;9.00;;;;;;;16.01;68.08;100246.44;5071551;28;20663;-71
2023/10/05 03:06:11;;;;;;;15.23;8.83;;;;;;;15.93;67.94;100230.59;5071147;28;20190;-71
2023/10/05 03:08:39;;;;;;;15.93;7.80;;;;;;;15.94;67.94;100239.25;5071677;28;20192;-72
2023/10/05 03:11:08;;;;;;;18.77;9.73;;;;;;;15.99;67.74;100241.28;5071883;28;20199;-71
2023/10/05 03:13:37;;;;;;;16.80;9.47;;;;;;;16.01;67.24;100246.44;5071520;28;20306;-72
2023/10/05 03:16:09;;;;;;;19.97;9.07;;;;;;;16.03;67.48;100247.88;5070998;28;20748;-70
2023/10/05 03:18:37;;;;;;;15.77;8.87;;;;;;;16.02;67.09;100249.72;5072114;28;20251;-71
2023/10/05 03:21:11;;;;;;;21.13;10.10;;;;;;;16.02;66.65;100244.34;5071358;28;20195;-71
2023/10/05 03:23:40;;;;;;;16.43;9.03;;;;;;;16.01;67.00;100249.13;5071125;28;20195;-74
2023/10/05 03:26:08;;;;;;;24.50;10.20;;;;;;;15.94;66.82;100233.88;5071248;28;20200;-71
2023/10/05 03:28:35;;;;;;;13.77;9.60;;;;;;;15.91;67.53;100236.16;5071008;28;20724;-72
2023/10/05 03:31:07;;;;;;;18.50;9.80;;;;;;;15.74;67.70;100233.16;5071288;28;20199;-71
2023/10/05 03:33:36;;;;;;;15.70;9.43;;;;;;;15.72;67.73;100245.94;5071125;28;20571;-71
2023/10/05 03:36:06;;;;;;;18.57;9.87;;;;;;;15.69;68.18;100240.97;5071335;28;20196;-71
2023/10/05 03:38:35;;;;;;;16.97;9.83;;;;;;;15.70;68.18;100236.47;5071624;28;20227;-71
2023/10/05 03:41:04;;;;;;;20.00;10.37;;;;;;;15.63;67.88;100244.50;5071144;28;20196;-72
2023/10/05 03:43:32;;;;;;;17.73;11.27;;;;;;;15.48;67.68;100246.59;5070172;28;20271;-72
2023/10/05 03:46:07;;;;;;;27.00;11.97;;;;;;;15.35;67.62;100249.31;5070665;28;20275;-73
2023/10/05 03:48:38;;;;;;;13.70;9.93;;;;;;;15.20;67.91;100245.97;5071373;28;20212;-73
2023/10/05 03:51:18;;;;;;;17.23;10.53;;;;;;;15.07;68.09;100259.38;5070905;28;20573;-73
2023/10/05 03:53:51;;;;;;;16.43;10.80;;;;;;;14.97;68.47;100258.16;5071691;28;20618;-72
2023/10/05 03:56:19;;;;;;;21.60;10.83;;;;;;;14.96;69.33;100265.34;5071586;28;20204;-71
2023/10/05 03:58:47;;;;;;;18.03;10.07;;;;;;;14.91;69.55;100246.41;5071476;28;20212;-73
2023/10/05 04:01:15;;;;;;;29.70;11.20;;;;;;;14.95;69.88;100250.31;5070719;28;20249;-74
2023/10/05 04:03:44;;;;;;;23.87;10.43;;;;;;;15.02;69.60;100264.53;5071321;28;20192;-73
2023/10/05 04:06:17;;;;;;;31.20;10.57;;;;;;;15.06;69.65;100267.59;5071582;28;20287;-74
2023/10/05 04:08:50;;;;;;;25.33;9.83;;;;;;;15.08;69.73;100269.03;5070197;28;20387;-73
2023/10/05 04:11:21;;;;;;;18.33;9.50;;;;;;;15.08;69.59;100274.41;5070860;28;20725;-73
2023/10/05 04:13:49;;;;;;;29.43;11.00;;;;;;;15.07;69.61;100267.41;5070923;28;20192;-72
2023/10/05 04:16:26;;;;;;;17.53;10.27;;;;;;;15.02;69.31;100269.88;5070974;28;20255;-75
2023/10/05 04:18:54;;;;;;;21.60;10.33;;;;;;;14.91;70.33;100270.47;5071373;28;20196;-71
2023/10/05 04:21:22;;;;;;;19.90;9.73;;;;;;;14.93;69.96;100273.78;5070681;28;20337;-71
2023/10/05 04:23:50;;;;;;;18.60;9.80;;;;;;;14.87;70.18;100274.59;5071186;28;20196;-71
2023/10/05 04:26:21;;;;;;;18.40;9.23;;;;;;;14.90;69.93;100281.38;5070493;28;20279;-71
2023/10/05 04:28:57;;;;;;;14.17;10.20;;;;;;;14.91;69.72;100281.19;5083863;28;20265;-72
2023/10/05 04:31:26;;;;;;;18.50;9.97;;;;;;;14.91;69.40;100275.03;5070018;28;20192;-71
2023/10/05 04:33:56;;;;;;;16.97;10.13;;;;;;;15.01;68.55;100286.97;5069545;28;20222;-73
2023/10/05 04:36:23;;;;;;;20.93;9.87;;;;;;;15.06;68.64;100287.16;5068391;28;20203;-73
2023/10/05 04:38:53;;;;;;;18.33;7.87;;;;;;;15.18;73.57;100274.00;5068608;28;20668;-66
2023/10/05 04:41:20;;;;;;;20.93;8.87;;;;;;;16.13;72.83;100276.91;5068541;28;20249;-67
2023/10/05 04:43:49;;;;;;;20.40;9.83;;;;;;;16.99;68.17;100284.28;5063550;28;20254;-66
2023/10/05 04:46:18;;;;;;;21.77;9.57;;;;;;;17.61;64.59;100286.84;5076779;28;20196;-67
2023/10/05 04:48:55;;;;;;;26.73;10.40;;;;;;;17.78;58.93;100290.59;5066290;28;20227;-66
2023/10/05 04:51:23;;;;;;;21.80;9.73;;;;;;;17.83;60.46;100286.22;5069376;28;20292;-66
2023/10/05 04:53:54;;;;;;;19.20;9.60;;;;;;;17.90;61.71;100294.19;5066914;28;20282;-66
2023/10/05 04:56:34;;;;;;;19.97;9.40;;;;;;;18.50;58.58;100295.97;5068562;28;21361;-66
2023/10/05 04:59:24;;;;;;;25.03;10.27;;;;;;;19.10;55.82;100300.25;5069712;28;20345;-67
2023/10/05 05:02:00;;;;;;;23.53;10.40;;;;;;;19.43;53.67;100305.94;5069033;28;20219;-67
2023/10/05 05:04:41;;;;;;;17.17;9.03;;;;;;;19.68;54.26;100303.84;5067951;28;20195;-67
2023/10/05 05:07:09;;;;;;;25.83;11.13;;;;;;;20.27;52.31;100312.47;5068570;28;20211;-69
2023/10/05 05:09:38;;;;;;;27.23;10.37;;;;;;;20.55;51.38;100317.88;5069452;28;20204;-69
2023/10/05 05:12:08;;;;;;;25.97;11.57;;;;;;;20.51;47.71;100313.22;5067333;28;20582;-67
2023/10/05 05:14:41;;;;;;;30.33;11.03;;;;;;;20.17;49.20;100292.53;5073387;28;20199;-65
2023/10/05 05:17:10;;;;;;;67.30;12.87;;;;;;;20.01;48.82;100304.06;5068733;28;20230;-65
2023/10/05 05:19:38;;;;;;;30.27;10.60;;;;;;;19.94;49.46;100306.84;5064607;28;20208;-68
2023/10/05 05:22:05;;;;;;;43.97;11.50;;;;;;;19.89;49.98;100305.94;5057220;28;20202;-68
2023/10/05 05:24:34;;;;;;;25.17;10.17;;;;;;;19.78;52.05;100304.91;5069623;28;20192;-65
2023/10/05 05:27:03;;;;;;;19.63;10.47;;;;;;;20.16;50.21;100299.00;5070089;28;20645;-66
2023/10/05 05:29:32;;;;;;;24.03;10.30;;;;;;;20.66;49.42;100301.91;5071347;28;20657;-66
2023/10/05 05:32:02;;;;;;;23.70;9.80;;;;;;;20.95;48.22;100312.44;5068921;28;20274;-66
2023/10/05 05:34:32;;;;;;;28.53;10.60;;;;;;;21.20;46.47;100315.63;5069523;28;20188;-71
2023/10/05 05:36:59;;;;;;;31.73;11.23;;;;;;;21.21;47.43;100316.41;5070044;28;20621;-70
2023/10/05 05:39:26;;;;;;;27.00;10.73;;;;;;;21.53;47.32;100325.59;5069652;28;20246;-74
2023/10/05 05:41:59;;;;;;;24.30;9.90;;;;;;;22.12;44.34;100320.28;5069280;28;20199;-74
2023/10/05 05:44:28;;;;;;;26.33;11.10;;;;;;;22.64;43.19;100324.19;5070722;28;20192;-75
2023/10/05 05:46:59;;;;;;;18.27;12.37;;;;;;;22.67;41.29;100318.25;5069407;28;20686;-73
2023/10/05 05:49:27;;;;;;;21.53;11.07;;;;;;;22.36;43.12;100327.09;5070512;28;20204;-73
2023/10/05 05:51:55;;;;;;;19.03;10.90;;;;;;;22.50;43.16;100328.34;5070965;28;20200;-73
2023/10/05 05:54:21;;;;;;;16.70;8.53;;;;;;;22.62;41.50;100342.56;5070536;28;20647;-71
2023/10/05 05:56:48;;;;;;;13.83;8.93;;;;;;;22.93;42.29;100343.72;5069462;28;20290;-69
2023/10/05 05:59:16;;;;;;;13.13;8.07;;;;;;;23.16;42.10;100338.81;5070506;28;20198;-69
2023/10/05 06:01:43;;;;;;;14.53;7.80;;;;;;;23.60;40.53;100356.56;5068477;28;20864;-69
2023/10/05 06:04:10;;;;;;;16.80;8.87;;;;;;;23.80;39.69;100340.44;5070027;28;20270;-69
2023/10/05 06:06:37;;;;;;;20.53;8.37;;;;;;;24.00;39.54;100365.03;5069322;28;20187;-70
2023/10/05 06:09:07;;;;;;;15.03;8.50;;;;;;;24.09;38.37;100359.94;5070200;28;20724;-68
2023/10/05 06:11:34;;;;;;;33.67;11.63;;;;;;;24.04;38.58;100360.72;5070917;28;20198;-69
2023/10/05 06:14:01;;;;;;;20.80;9.27;;;;;;;23.86;39.08;100358.41;5070814;28;20193;-70
2023/10/05 06:16:31;;;;;;;18.67;9.27;;;;;;;23.11;40.37;100357.72;5070983;28;20216;-70
2023/10/05 06:18:58;;;;;;;24.30;8.80;;;;;;;22.82;42.38;100369.91;5070627;28;20206;-69
2023/10/05 06:21:25;;;;;;;12.13;8.50;;;;;;;23.20;41.22;100367.06;5050905;28;20292;-69
2023/10/05 06:23:51;;;;;;;18.13;9.13;;;;;;;23.63;40.31;100369.63;5057279;28;20218;-69
2023/10/05 06:26:18;;;;;;;16.20;8.77;;;;;;;23.92;39.55;100370.13;5059214;28;20206;-68
2023/10/05 06:28:45;;;;;;;27.30;10.17;;;;;;;24.28;38.49;100380.13;5062404;28;20304;-68
2023/10/05 06:31:12;;;;;;;21.03;10.57;;;;;;;24.37;38.00;100387.50;5056374;28;20192;-69
2023/10/05 06:33:42;;;;;;;19.67;10.17;;;;;;;24.18;37.87;100385.50;5062050;28;20618;-68
2023/10/05 06:36:09;;;;;;;20.77;9.87;;;;;;;23.73;39.57;100391.41;5058611;28;20922;-69
2023/10/05 06:38:36;;;;;;;17.67;9.40;;;;;;;23.14;40.19;100387.06;5060047;28;20255;-69
2023/10/05 06:41:03;;;;;;;20.07;10.43;;;;;;;23.12;40.81;100391.09;5059422;28;20193;-70
2023/10/05 06:43:35;;;;;;;21.30;9.97;;;;;;;23.30;40.37;100380.72;5057889;28;20620;-69
2023/10/05 06:46:09;;;;;;;18.10;9.63;;;;;;;23.53;39.87;100393.16;5055921;28;20244;-69
2023/10/05 06:48:37;;;;;;;60.70;11.77;;;;;;;23.85;39.68;100391.25;5057952;28;20233;-69
2023/10/05 06:51:05;;;;;;;33.60;11.40;;;;;;;23.62;40.02;100395.13;5058814;28;20226;-68
2023/10/05 06:53:31;;;;;;;20.80;9.63;;;;;;;23.40;41.08;100385.44;5057422;28;20873;-68
2023/10/05 06:55:58;;;;;;;22.30;9.83;;;;;;;23.51;40.05;100382.56;5058556;28;20665;-68
2023/10/05 06:58:26;;;;;;;16.83;9.07;;;;;;;23.90;39.83;100381.25;5060144;28;20278;-68
2023/10/05 07:00:52;;;;;;;16.17;9.03;;;;;;;24.36;38.77;100388.59;5059436;28;20690;-69
2023/10/05 07:03:20;;;;;;;26.73;10.50;;;;;;;24.45;38.55;100387.00;5060801;28;20288;-69
2023/10/05 07:05:47;;;;;;;23.87;9.33;;;;;;;24.55;39.40;100387.03;5057239;28;20211;-70
2023/10/05 07:08:15;;;;;;;18.77;9.47;;;;;;;24.75;37.88;100389.06;5066638;28;20969;-68
2023/10/05 07:10:42;;;;;;;28.27;9.93;;;;;;;24.68;39.17;100381.16;5067586;28;20255;-71
2023/10/05 07:13:09;;;;;;;25.33;9.50;;;;;;;24.57;38.95;100392.22;5067887;28;20685;-69
2023/10/05 07:15:36;;;;;;;25.27;8.83;;;;;;;24.87;38.67;100390.47;5067779;28;20696;-70
2023/10/05 07:18:03;;;;;;;26.70;8.83;;;;;;;25.30;38.05;100388.41;5068111;28;20231;-67
2023/10/05 07:20:30;;;;;;;22.23;9.10;;;;;;;25.54;36.95;100384.06;5057043;28;20266;-67
2023/10/05 07:22:57;;;;;;;19.53;8.43;;;;;;;25.71;37.36;100381.88;5048537;28;20192;-69
2023/10/05 07:25:25;;;;;;;21.43;9.17;;;;;;;25.68;36.73;100375.06;5051762;28;20250;-70
2023/10/05 07:27:52;;;;;;;13.00;8.63;;;;;;;25.43;38.24;100371.56;5058675;28;20253;-70
2023/10/05 07:30:18;;;;;;;19.17;8.70;;;;;;;25.85;37.37;100374.81;5054918;28;20222;-72
2023/10/05 07:32:45;;;;;;;13.30;8.53;;;;;;;26.25;37.03;100380.22;5060381;28;20325;-67
2023/10/05 07:35:13;;;;;;;15.80;8.90;;;;;;;26.58;36.21;100374.13;5058871;28;20279;-69
2023/10/05 07:37:41;;;;;;;12.50;7.87;;;;;;;26.31;36.33;100374.47;5064975;28;20279;-71
2023/10/05 07:40:08;;;;;;;11.93;8.20;;;;;;;26.24;37.48;100373.94;5066436;28;20192;-69
2023/10/05 07:42:37;;;;;;;13.40;7.53;;;;;;;26.32;37.17;100369.81;5067049;28;20227;-68
2023/10/05 07:45:07;;;;;;;14.87;7.77;;;;;;;26.48;36.70;100364.06;5067766;28;20188;-70
2023/10/05 07:47:33;;;;;;;17.37;8.03;;;;;;;26.68;36.47;100363.16;5068275;28;20297;-73
2023/10/05 07:50:00;;;;;;;13.00;8.07;;;;;;;26.48;36.70;100371.41;5068384;28;20220;-72
2023/10/05 07:52:27;;;;;;;23.20;8.83;;;;;;;26.20;37.57;100366.59;5063848;28;20257;-69
2023/10/05 07:54:53;;;;;;;12.67;7.80;;;;;;;26.09;38.22;100362.28;5058833;28;20192;-69
2023/10/05 07:57:20;;;;;;;24.60;8.77;;;;;;;26.32;37.86;100364.38;5054716;28;20358;-68
2023/10/05 07:59:48;;;;;;;20.83;8.57;;;;;;;26.51;37.46;100357.22;5066628;28;20748;-69
2023/10/05 08:02:15;;;;;;;23.20;8.20;;;;;;;26.71;37.27;100351.72;5066975;28;20363;-63
2023/10/05 08:04:43;;;;;;;76.77;11.93;;;;;;;26.82;37.25;100353.28;5057740;28;20193;-61
2023/10/05 08:07:11;;;;;;;12.77;7.70;;;;;;;27.15;36.57;100347.88;5057327;28;20188;-68
2023/10/05 08:09:37;;;;;;;13.87;7.53;;;;;;;27.36;36.02;100351.31;5057382;28;20780;-64
2023/10/05 08:12:04;;;;;;;13.03;8.80;;;;;;;27.34;35.99;100353.50;5062650;28;20192;-64
2023/10/05 08:14:31;;;;;;;17.67;8.30;;;;;;;27.25;36.27;100347.03;5060432;28;20196;-64
2023/10/05 08:16:59;;;;;;;18.33;8.67;;;;;;;27.34;36.87;100351.59;5067859;28;20234;-65
2023/10/05 08:19:26;;;;;;;11.33;7.73;;;;;;;27.56;36.07;100348.41;5067315;28;20224;-65
2023/10/05 08:21:53;;;;;;;16.77;7.87;;;;;;;27.79;35.94;100353.09;5068076;28;20257;-65
2023/10/05 08:24:20;;;;;;;15.70;8.47;;;;;;;28.07;35.36;100344.13;5062527;28;20269;-66
2023/10/05 08:26:49;;;;;;;11.33;8.10;;;;;;;28.21;35.07;100347.75;5064572;28;20224;-64
2023/10/05 08:29:17;;;;;;;26.47;8.80;;;;;;;28.51;34.80;100348.25;5069703;28;20227;-65
2023/10/05 08:31:44;;;;;;;10.40;7.80;;;;;;;28.86;34.17;100346.97;5072076;28;20199;-66
2023/10/05 08:34:17;;;;;;;12.67;8.03;;;;;;;29.08;33.90;100339.81;5073279;28;20254;-65
2023/10/05 08:36:44;;;;;;;14.33;8.37;;;;;;;29.33;33.15;100344.91;5071317;28;20692;-66
2023/10/05 08:39:13;;;;;;;16.17;7.80;;;;;;;29.45;33.15;100349.94;5071379;28;20231;-66
2023/10/05 08:41:41;;;;;;;13.87;8.10;;;;;;;29.71;32.14;100348.41;5071442;28;20249;-66
2023/10/05 08:44:10;;;;;;;19.60;9.00;;;;;;;29.89;31.96;100344.81;5071053;28;20262;-66
2023/10/05 08:46:42;;;;;;;21.10;7.97;;;;;;;29.85;33.06;100343.78;5071350;28;20198;-65
2023/10/05 08:49:10;;;;;;;14.93;8.60;;;;;;;29.95;32.80;100332.63;5060197;28;20235;-66
2023/10/05 08:51:40;;;;;;;16.73;7.83;;;;;;;30.21;32.11;100342.00;5069930;28;20196;-65
2023/10/05 08:54:11;;;;;;;14.93;8.27;;;;;;;30.26;32.51;100341.09;5066639;28;20239;-67
2023/10/05 08:56:40;;;;;;;10.77;8.37;;;;;;;30.45;31.70;100337.13;5069499;28;20735;-67
2023/10/05 08:59:13;;;;;;;12.00;7.90;;;;;;;30.67;31.22;100339.97;5070684;28;20207;-66
2023/10/05 09:01:42;;;;;;;12.33;8.30;;;;;;;30.67;31.15;100328.97;5076381;28;20426;-66
2023/10/05 09:04:23;;;;;;;11.37;7.97;;;;;;;30.72;30.97;100330.81;5082847;28;20203;-64
2023/10/05 09:06:55;;;;;;;9.13;7.53;;;;;;;30.65;31.40;100328.47;5070550;28;20635;-64
2023/10/05 09:09:35;;;;;;;9.80;7.70;;;;;;;30.42;31.80;100326.75;5071953;28;20211;-64
2023/10/05 09:12:17;;;;;;;16.37;8.03;;;;;;;30.57;31.54;100329.19;5060946;28;20183;-65
2023/10/05 09:14:45;;;;;;;12.77;7.67;;;;;;;30.69;31.14;100317.69;5071086;28;20271;-65
2023/10/05 09:17:15;;;;;;;13.77;8.20;;;;;;;30.81;30.92;100318.81;5070458;28;20227;-65
2023/10/05 09:19:44;;;;;;;15.73;7.90;;;;;;;31.00;30.77;100322.22;5065296;28;20275;-64
2023/10/05 09:22:13;;;;;;;8.53;7.70;;;;;;;31.08;30.58;100318.72;5067817;28;20195;-64
2023/10/05 09:24:43;;;;;;;8.93;7.70;;;;;;;30.97;30.23;100317.34;5051946;28;20203;-63
2023/10/05 09:27:17;;;;;;;11.57;7.67;;;;;;;30.89;30.91;100318.06;5070663;28;20196;-65
2023/10/05 09:29:45;;;;;;;8.90;7.90;;;;;;;31.03;30.57;100316.09;5070292;28;20215;-64
2023/10/05 09:32:25;;;;;;;12.20;7.93;;;;;;;31.10;30.32;100319.22;5068100;28;20243;-65
2023/10/05 09:34:56;;;;;;;11.00;8.10;;;;;;;30.99;30.36;100309.59;5059012;28;20199;-66
2023/10/05 09:37:25;;;;;;;8.77;7.87;;;;;;;30.80;30.14;100310.88;5070670;28;20180;-65
2023/10/05 09:39:59;;;;;;;15.97;7.70;;;;;;;30.67;30.25;100307.03;5070390;28;20254;-64
2023/10/05 09:42:26;;;;;;;14.63;8.70;;;;;;;30.51;30.39;100297.50;5070724;28;20184;-63
2023/10/05 09:44:53;;;;;;;11.13;8.13;;;;;;;30.63;30.48;100297.78;5081535;28;20702;-63
2023/10/05 09:47:26;;;;;;;15.23;8.20;;;;;;;30.62;30.31;100293.41;5064086;28;20200;-63
2023/10/05 09:50:00;;;;;;;16.27;8.77;;;;;;;30.16;31.07;100287.28;5067059;28;20215;-64
2023/10/05 09:52:34;;;;;;;15.40;8.63;;;;;;;30.32;30.55;100285.03;5067427;28;20216;-63
2023/10/05 09:55:03;;;;;;;22.53;8.70;;;;;;;30.60;29.96;100284.69;5068673;28;20282;-63
2023/10/05 09:57:38;;;;;;;11.60;8.00;;;;;;;30.76;30.03;100271.47;5068849;28;20294;-64
2023/10/05 10:00:11;;;;;;;11.43;7.97;;;;;;;30.97;29.60;100276.16;5070538;28;20206;-63
2023/10/05 10:02:41;;;;;;;15.03;7.10;;;;;;;31.19;29.20;100270.66;5070260;28;20184;-64
2023/10/05 10:05:26;;;;;;;9.70;7.70;;;;;;;31.29;29.13;100278.69;5070035;28;20275;-64
2023/10/05 10:07:56;;;;;;;12.93;7.13;;;;;;;31.44;28.83;100263.75;5070393;28;20199;-63
2023/10/05 10:10:25;;;;;;;12.40;7.53;;;;;;;31.57;28.55;100263.69;5070501;28;20207;-62
2023/10/05 10:12:53;;;;;;;18.30;8.70;;;;;;;31.56;28.20;100258.50;5068533;28;20752;-63
2023/10/05 10:15:33;;;;;;;9.00;7.47;;;;;;;31.51;28.10;100259.44;5068139;28;20188;-63
2023/10/05 10:18:13;;;;;;;13.20;6.57;;;;;;;31.39;27.32;100245.47;5069724;28;20227;-64
2023/10/05 10:20:46;;;;;;;7.43;6.73;;;;;;;31.24;27.80;100256.84;5061332;28;20188;-63
2023/10/05 10:23:19;;;;;;;7.47;6.23;;;;;;;31.34;27.26;100244.78;5050104;28;20271;-63
2023/10/05 10:25:46;;;;;;;8.70;6.17;;;;;;;31.34;27.30;100228.31;5055905;28;20177;-64
2023/10/05 10:28:20;;;;;;;9.00;6.80;;;;;;;31.34;27.62;100231.06;5068360;28;20188;-64
2023/10/05 10:31:11;;;;;;;9.63;5.97;;;;;;;31.28;27.33;100224.88;5069228;28;20216;-64
2023/10/05 10:33:40;;;;;;;9.27;6.23;;;;;;;31.19;27.43;100225.94;5068791;28;20659;-63
2023/10/05 10:36:18;;;;;;;11.97;6.63;;;;;;;31.02;27.44;100215.66;5068809;28;20717;-63
2023/10/05 10:38:51;;;;;;;10.30;6.43;;;;;;;30.94;28.17;100212.88;5068035;28;20191;-63
2023/10/05 10:41:20;;;;;;;11.43;6.80;;;;;;;30.95;27.91;100198.78;5067430;28;20725;-64
2023/10/05 10:43:52;;;;;;;9.33;6.50;;;;;;;30.93;27.69;100212.03;5049647;28;20204;-63
2023/10/05 10:46:28;;;;;;;6.93;5.40;;;;;;;30.99;26.58;100210.78;5067116;28;20662;-63
2023/10/05 10:48:58;;;;;;;7.97;5.40;;;;;;;30.91;26.90;100203.28;5069463;28;20229;-64
2023/10/05 10:51:30;;;;;;;11.17;6.63;;;;;;;30.76;27.23;100195.44;5069487;28;20203;-65
2023/10/05 10:54:08;;;;;;;13.20;6.13;;;;;;;30.28;28.26;100190.78;5070402;28;20188;-65
2023/10/05 10:56:42;;;;;;;9.20;6.43;;;;;;;30.27;28.14;100183.69;5069256;28;20184;-64
2023/10/05 10:59:12;;;;;;;11.83;7.00;;;;;;;30.38;28.26;100179.59;5069134;28;20219;-66
2023/10/05 11:01:59;;;;;;;12.17;6.43;;;;;;;30.45;28.17;100183.53;5068021;28;20202;-63
2023/10/05 11:04:36;;;;;;;7.73;5.57;;;;;;;30.23;28.28;100174.47;5068366;28;20184;-65
2023/10/05 11:07:05;;;;;;;8.17;6.30;;;;;;;29.92;28.16;100171.53;5069414;28;20184;-65
2023/10/05 11:09:36;;;;;;;9.17;5.73;;;;;;;29.93;28.33;100180.59;5067789;28;20238;-64
2023/10/05 11:12:11;;;;;;;10.27;5.90;;;;;;;29.87;28.02;100173.56;5069403;28;20246;-63
2023/10/05 11:14:41;;;;;;;8.53;5.93;;;;;;;29.24;28.69;100167.97;5068974;28;20222;-61
2023/10/05 11:17:23;;;;;;;9.93;6.50;;;;;;;28.96;29.61;100160.78;5068951;28;20231;-61
2023/10/05 11:19:50;;;;;;;9.13;6.73;;;;;;;28.85;30.21;100159.31;5066278;28;20191;-61
2023/10/05 11:22:23;;;;;;;9.40;6.30;;;;;;;28.63;30.26;100156.41;5073293;28;20514;-63
2023/10/05 11:27:55;;;;;;;13.57;6.10;;;;;;;28.46;30.38;100147.94;5066846;28;20310;-65
2023/10/05 11:30:24;;;;;;;19.60;6.60;;;;;;;28.72;30.16;100135.47;5072006;28;20295;-62
2023/10/05 11:32:56;;;;;;;12.07;5.97;;;;;;;28.84;30.03;100120.19;5071450;28;20199;-62
2023/10/05 11:35:42;;;;;;;12.67;6.00;;;;;;;28.82;30.33;100132.56;5087422;28;20257;-63
2023/10/05 11:38:14;;;;;;;7.63;6.20;;;;;;;28.82;30.20;100127.09;5048381;28;20193;-64